sensor_id;sensor_type;location;lat;lon;timestamp;temperature;humidity
28530;DHT22;15737;49.760;6.632;2022-07-06T00:01:16;16.10;86.70
28530;DHT22;15737;49.760;6.632;2022-07-06T00:03:42;16.00;86.90
28530;DHT22;15737;49.760;6.632;2022-07-06T00:06:08;15.90;87.20
28530;DHT22;15737;49.760;6.632;2022-07-06T00:08:33;15.90;87.60
28530;DHT22;15737;49.760;6.632;2022-07-06T00:10:59;15.90;88.00
28530;DHT22;15737;49.760;6.632;2022-07-06T00:13:25;15.90;88.10
28530;DHT22;15737;49.760;6.632;2022-07-06T00:15:50;15.90;88.30
28530;DHT22;15737;49.760;6.632;2022-07-06T00:18:16;15.80;88.40
28530;DHT22;15737;49.760;6.632;2022-07-06T00:20:41;15.70;88.80
28530;DHT22;15737;49.760;6.632;2022-07-06T00:23:07;15.70;89.20
28530;DHT22;15737;49.760;6.632;2022-07-06T00:25:32;15.70;89.60
28530;DHT22;15737;49.760;6.632;2022-07-06T00:27:58;15.60;90.00
28530;DHT22;15737;49.760;6.632;2022-07-06T00:30:23;15.60;90.20
28530;DHT22;15737;49.760;6.632;2022-07-06T00:32:49;15.50;90.30
28530;DHT22;15737;49.760;6.632;2022-07-06T00:35:15;15.40;90.50
28530;DHT22;15737;49.760;6.632;2022-07-06T00:37:40;15.40;90.80
28530;DHT22;15737;49.760;6.632;2022-07-06T00:40:06;15.30;91.10
28530;DHT22;15737;49.760;6.632;2022-07-06T00:42:43;15.20;91.20
28530;DHT22;15737;49.760;6.632;2022-07-06T00:45:10;15.20;91.40
28530;DHT22;15737;49.760;6.632;2022-07-06T00:47:36;15.10;91.60
28530;DHT22;15737;49.760;6.632;2022-07-06T00:50:03;15.00;91.80
28530;DHT22;15737;49.760;6.632;2022-07-06T00:52:42;15.00;91.90
28530;DHT22;15737;49.760;6.632;2022-07-06T00:55:09;15.00;91.90
28530;DHT22;15737;49.760;6.632;2022-07-06T00:57:35;15.00;92.00
28530;DHT22;15737;49.760;6.632;2022-07-06T01:00:03;15.00;92.10
28530;DHT22;15737;49.760;6.632;2022-07-06T01:02:33;14.90;92.10
28530;DHT22;15737;49.760;6.632;2022-07-06T01:04:59;14.90;92.20
28530;DHT22;15737;49.760;6.632;2022-07-06T01:07:28;14.90;92.10
28530;DHT22;15737;49.760;6.632;2022-07-06T01:09:55;14.90;92.00
28530;DHT22;15737;49.760;6.632;2022-07-06T01:12:21;14.90;92.10
28530;DHT22;15737;49.760;6.632;2022-07-06T01:14:47;14.80;92.30
28530;DHT22;15737;49.760;6.632;2022-07-06T01:17:14;14.70;92.50
28530;DHT22;15737;49.760;6.632;2022-07-06T01:19:40;14.70;92.70
28530;DHT22;15737;49.760;6.632;2022-07-06T01:22:06;14.60;93.00
28530;DHT22;15737;49.760;6.632;2022-07-06T01:24:34;14.60;93.30
28530;DHT22;15737;49.760;6.632;2022-07-06T01:27:00;14.50;93.40
28530;DHT22;15737;49.760;6.632;2022-07-06T01:29:25;14.50;93.70
28530;DHT22;15737;49.760;6.632;2022-07-06T01:31:51;14.40;94.00
28530;DHT22;15737;49.760;6.632;2022-07-06T01:34:17;14.40;94.20
28530;DHT22;15737;49.760;6.632;2022-07-06T01:36:43;14.30;94.40
28530;DHT22;15737;49.760;6.632;2022-07-06T01:39:10;14.40;94.60
28530;DHT22;15737;49.760;6.632;2022-07-06T01:41:35;14.30;94.70
28530;DHT22;15737;49.760;6.632;2022-07-06T01:44:02;14.20;94.90
28530;DHT22;15737;49.760;6.632;2022-07-06T01:46:28;14.20;95.00
28530;DHT22;15737;49.760;6.632;2022-07-06T01:48:54;14.10;95.00
28530;DHT22;15737;49.760;6.632;2022-07-06T01:51:19;14.00;95.30
28530;DHT22;15737;49.760;6.632;2022-07-06T01:53:46;14.00;95.60
28530;DHT22;15737;49.760;6.632;2022-07-06T01:56:12;13.90;95.80
28530;DHT22;15737;49.760;6.632;2022-07-06T01:58:38;14.00;95.80
28530;DHT22;15737;49.760;6.632;2022-07-06T02:01:12;13.90;95.80
28530;DHT22;15737;49.760;6.632;2022-07-06T02:03:38;13.90;96.00
28530;DHT22;15737;49.760;6.632;2022-07-06T02:06:05;13.80;96.20
28530;DHT22;15737;49.760;6.632;2022-07-06T02:08:31;13.80;96.50
28530;DHT22;15737;49.760;6.632;2022-07-06T02:10:57;13.70;96.70
28530;DHT22;15737;49.760;6.632;2022-07-06T02:13:22;13.70;96.80
28530;DHT22;15737;49.760;6.632;2022-07-06T02:15:48;13.70;97.00
28530;DHT22;15737;49.760;6.632;2022-07-06T02:18:13;13.70;96.90
28530;DHT22;15737;49.760;6.632;2022-07-06T02:20:39;13.80;96.70
28530;DHT22;15737;49.760;6.632;2022-07-06T02:23:04;13.90;96.50
28530;DHT22;15737;49.760;6.632;2022-07-06T02:25:30;14.00;96.20
28530;DHT22;15737;49.760;6.632;2022-07-06T02:27:55;14.00;96.00
28530;DHT22;15737;49.760;6.632;2022-07-06T02:30:21;14.20;95.70
28530;DHT22;15737;49.760;6.632;2022-07-06T02:32:47;14.00;96.10
28530;DHT22;15737;49.760;6.632;2022-07-06T02:35:12;13.70;96.30
28530;DHT22;15737;49.760;6.632;2022-07-06T02:37:38;13.40;96.70
28530;DHT22;15737;49.760;6.632;2022-07-06T02:40:04;13.30;97.50
28530;DHT22;15737;49.760;6.632;2022-07-06T02:42:30;13.30;97.40
28530;DHT22;15737;49.760;6.632;2022-07-06T02:44:55;13.40;97.60
28530;DHT22;15737;49.760;6.632;2022-07-06T02:47:21;13.40;97.50
28530;DHT22;15737;49.760;6.632;2022-07-06T02:49:47;13.40;97.70
28530;DHT22;15737;49.760;6.632;2022-07-06T02:52:13;13.40;98.50
28530;DHT22;15737;49.760;6.632;2022-07-06T02:54:38;13.30;98.60
28530;DHT22;15737;49.760;6.632;2022-07-06T02:57:04;13.20;98.30
28530;DHT22;15737;49.760;6.632;2022-07-06T02:59:29;13.20;98.80
28530;DHT22;15737;49.760;6.632;2022-07-06T03:01:55;13.10;98.90
28530;DHT22;15737;49.760;6.632;2022-07-06T03:04:20;13.10;99.10
28530;DHT22;15737;49.760;6.632;2022-07-06T03:06:46;13.10;99.30
28530;DHT22;15737;49.760;6.632;2022-07-06T03:09:11;13.00;99.50
28530;DHT22;15737;49.760;6.632;2022-07-06T03:11:37;13.00;99.60
28530;DHT22;15737;49.760;6.632;2022-07-06T03:14:03;13.00;99.60
28530;DHT22;15737;49.760;6.632;2022-07-06T03:16:29;12.90;99.80
28530;DHT22;15737;49.760;6.632;2022-07-06T03:18:55;12.90;99.80
28530;DHT22;15737;49.760;6.632;2022-07-06T03:21:21;12.90;99.90
28530;DHT22;15737;49.760;6.632;2022-07-06T03:23:47;12.80;99.90
28530;DHT22;15737;49.760;6.632;2022-07-06T03:26:12;12.80;99.90
28530;DHT22;15737;49.760;6.632;2022-07-06T03:28:38;12.80;99.90
28530;DHT22;15737;49.760;6.632;2022-07-06T03:31:03;12.80;99.90
28530;DHT22;15737;49.760;6.632;2022-07-06T03:33:29;12.80;99.80
28530;DHT22;15737;49.760;6.632;2022-07-06T03:35:54;12.70;99.80
28530;DHT22;15737;49.760;6.632;2022-07-06T03:38:20;12.80;99.70
28530;DHT22;15737;49.760;6.632;2022-07-06T03:40:46;12.70;99.60
28530;DHT22;15737;49.760;6.632;2022-07-06T03:43:11;12.60;99.70
28530;DHT22;15737;49.760;6.632;2022-07-06T03:45:37;12.40;99.80
28530;DHT22;15737;49.760;6.632;2022-07-06T03:48:03;12.30;99.90
28530;DHT22;15737;49.760;6.632;2022-07-06T03:50:29;12.10;99.90
28530;DHT22;15737;49.760;6.632;2022-07-06T03:52:54;12.00;99.90
28530;DHT22;15737;49.760;6.632;2022-07-06T03:55:20;11.80;99.90
28530;DHT22;15737;49.760;6.632;2022-07-06T03:57:45;11.80;99.90
28530;DHT22;15737;49.760;6.632;2022-07-06T04:00:11;11.70;99.90
28530;DHT22;15737;49.760;6.632;2022-07-06T04:02:37;11.70;99.90
28530;DHT22;15737;49.760;6.632;2022-07-06T04:05:03;11.80;99.90
28530;DHT22;15737;49.760;6.632;2022-07-06T04:07:28;11.80;99.90
28530;DHT22;15737;49.760;6.632;2022-07-06T04:09:54;12.00;99.90
28530;DHT22;15737;49.760;6.632;2022-07-06T04:12:19;12.10;99.90
28530;DHT22;15737;49.760;6.632;2022-07-06T04:14:45;12.30;99.90
28530;DHT22;15737;49.760;6.632;2022-07-06T04:17:11;12.50;99.90
28530;DHT22;15737;49.760;6.632;2022-07-06T04:19:54;12.70;99.90
28530;DHT22;15737;49.760;6.632;2022-07-06T04:22:20;12.90;99.90
28530;DHT22;15737;49.760;6.632;2022-07-06T04:24:45;13.10;99.90
28530;DHT22;15737;49.760;6.632;2022-07-06T04:27:11;13.40;99.90
28530;DHT22;15737;49.760;6.632;2022-07-06T04:29:37;13.70;99.90
28530;DHT22;15737;49.760;6.632;2022-07-06T04:32:03;14.10;99.90
28530;DHT22;15737;49.760;6.632;2022-07-06T04:34:28;14.80;99.10
28530;DHT22;15737;49.760;6.632;2022-07-06T04:36:54;15.40;97.70
28530;DHT22;15737;49.760;6.632;2022-07-06T04:39:19;15.50;96.80
28530;DHT22;15737;49.760;6.632;2022-07-06T04:41:45;15.90;96.30
28530;DHT22;15737;49.760;6.632;2022-07-06T04:44:10;16.50;95.30
28530;DHT22;15737;49.760;6.632;2022-07-06T04:46:36;17.10;94.10
28530;DHT22;15737;49.760;6.632;2022-07-06T04:49:01;17.60;92.70
28530;DHT22;15737;49.760;6.632;2022-07-06T04:51:27;18.10;91.50
28530;DHT22;15737;49.760;6.632;2022-07-06T04:53:52;18.60;90.30
28530;DHT22;15737;49.760;6.632;2022-07-06T04:56:18;19.10;88.40
28530;DHT22;15737;49.760;6.632;2022-07-06T04:58:43;19.50;85.80
28530;DHT22;15737;49.760;6.632;2022-07-06T05:01:09;19.90;83.30
28530;DHT22;15737;49.760;6.632;2022-07-06T05:03:35;20.40;80.70
28530;DHT22;15737;49.760;6.632;2022-07-06T05:06:05;20.70;78.70
28530;DHT22;15737;49.760;6.632;2022-07-06T05:08:32;21.00;76.60
28530;DHT22;15737;49.760;6.632;2022-07-06T05:10:58;21.50;74.40
28530;DHT22;15737;49.760;6.632;2022-07-06T05:13:23;21.90;72.50
28530;DHT22;15737;49.760;6.632;2022-07-06T05:15:49;22.20;70.40
28530;DHT22;15737;49.760;6.632;2022-07-06T05:18:15;22.60;68.30
28530;DHT22;15737;49.760;6.632;2022-07-06T05:20:40;22.90;66.40
28530;DHT22;15737;49.760;6.632;2022-07-06T05:23:06;23.30;64.50
28530;DHT22;15737;49.760;6.632;2022-07-06T05:25:32;23.60;62.90
28530;DHT22;15737;49.760;6.632;2022-07-06T05:27:58;23.80;61.60
28530;DHT22;15737;49.760;6.632;2022-07-06T05:30:24;24.50;59.40
28530;DHT22;15737;49.760;6.632;2022-07-06T05:32:50;24.90;58.20
28530;DHT22;15737;49.760;6.632;2022-07-06T05:35:29;24.90;57.60
28530;DHT22;15737;49.760;6.632;2022-07-06T05:37:55;24.90;56.80
28530;DHT22;15737;49.760;6.632;2022-07-06T05:40:21;24.80;56.60
28530;DHT22;15737;49.760;6.632;2022-07-06T05:42:46;24.90;55.90
28530;DHT22;15737;49.760;6.632;2022-07-06T05:45:12;24.70;55.90
28530;DHT22;15737;49.760;6.632;2022-07-06T05:47:38;24.60;56.10
28530;DHT22;15737;49.760;6.632;2022-07-06T05:50:23;24.20;56.50
28530;DHT22;15737;49.760;6.632;2022-07-06T05:53:06;24.50;55.80
28530;DHT22;15737;49.760;6.632;2022-07-06T05:55:32;24.70;54.80
28530;DHT22;15737;49.760;6.632;2022-07-06T05:57:58;24.60;54.50
28530;DHT22;15737;49.760;6.632;2022-07-06T06:00:25;25.50;52.90
28530;DHT22;15737;49.760;6.632;2022-07-06T06:02:51;26.70;50.50
28530;DHT22;15737;49.760;6.632;2022-07-06T06:05:18;28.00;48.10
28530;DHT22;15737;49.760;6.632;2022-07-06T06:07:44;28.90;46.20
28530;DHT22;15737;49.760;6.632;2022-07-06T06:10:13;29.20;45.20
28530;DHT22;15737;49.760;6.632;2022-07-06T06:12:40;29.20;44.90
28530;DHT22;15737;49.760;6.632;2022-07-06T06:15:06;29.40;44.30
28530;DHT22;15737;49.760;6.632;2022-07-06T06:17:32;29.70;43.50
28530;DHT22;15737;49.760;6.632;2022-07-06T06:19:58;30.10;42.70
28530;DHT22;15737;49.760;6.632;2022-07-06T06:22:24;29.70;42.90
28530;DHT22;15737;49.760;6.632;2022-07-06T06:24:50;30.10;42.20
28530;DHT22;15737;49.760;6.632;2022-07-06T06:27:16;30.60;41.40
28530;DHT22;15737;49.760;6.632;2022-07-06T06:29:41;31.60;40.00
28530;DHT22;15737;49.760;6.632;2022-07-06T06:32:10;31.70;39.70
28530;DHT22;15737;49.760;6.632;2022-07-06T06:34:36;32.70;38.50
28530;DHT22;15737;49.760;6.632;2022-07-06T06:37:01;33.70;37.10
28530;DHT22;15737;49.760;6.632;2022-07-06T06:39:27;34.20;35.90
28530;DHT22;15737;49.760;6.632;2022-07-06T06:41:53;33.80;36.30
28530;DHT22;15737;49.760;6.632;2022-07-06T06:44:18;34.20;35.70
28530;DHT22;15737;49.760;6.632;2022-07-06T06:46:44;33.40;36.20
28530;DHT22;15737;49.760;6.632;2022-07-06T06:49:10;32.90;36.60
28530;DHT22;15737;49.760;6.632;2022-07-06T06:51:35;32.00;37.60
28530;DHT22;15737;49.760;6.632;2022-07-06T06:54:02;31.80;37.90
28530;DHT22;15737;49.760;6.632;2022-07-06T06:56:28;32.20;37.20
28530;DHT22;15737;49.760;6.632;2022-07-06T06:58:53;32.60;37.00
28530;DHT22;15737;49.760;6.632;2022-07-06T07:01:19;33.10;36.30
28530;DHT22;15737;49.760;6.632;2022-07-06T07:03:45;33.50;35.70
28530;DHT22;15737;49.760;6.632;2022-07-06T07:06:10;34.20;34.80
28530;DHT22;15737;49.760;6.632;2022-07-06T07:08:49;35.00;33.80
28530;DHT22;15737;49.760;6.632;2022-07-06T07:11:31;37.10;31.90
28530;DHT22;15737;49.760;6.632;2022-07-06T07:14:14;37.40;31.30
28530;DHT22;15737;49.760;6.632;2022-07-06T07:16:51;36.80;31.70
28530;DHT22;15737;49.760;6.632;2022-07-06T07:34:52;30.20;36.70
28530;DHT22;15737;49.760;6.632;2022-07-06T07:37:17;29.80;37.20
28530;DHT22;15737;49.760;6.632;2022-07-06T07:39:49;31.10;35.80
28530;DHT22;15737;49.760;6.632;2022-07-06T07:42:31;31.40;34.70
28530;DHT22;15737;49.760;6.632;2022-07-06T07:45:07;31.60;34.60
28530;DHT22;15737;49.760;6.632;2022-07-06T07:47:34;32.90;33.40
28530;DHT22;15737;49.760;6.632;2022-07-06T07:49:59;32.90;33.70
28530;DHT22;15737;49.760;6.632;2022-07-06T07:52:25;33.50;33.20
28530;DHT22;15737;49.760;6.632;2022-07-06T07:54:50;33.20;33.00
28530;DHT22;15737;49.760;6.632;2022-07-06T07:57:16;32.90;33.60
28530;DHT22;15737;49.760;6.632;2022-07-06T07:59:42;34.90;31.70
28530;DHT22;15737;49.760;6.632;2022-07-06T08:02:08;35.20;31.50
28530;DHT22;15737;49.760;6.632;2022-07-06T08:04:33;34.90;31.70
28530;DHT22;15737;49.760;6.632;2022-07-06T08:06:59;34.10;32.30
28530;DHT22;15737;49.760;6.632;2022-07-06T08:09:25;33.40;33.20
28530;DHT22;15737;49.760;6.632;2022-07-06T08:11:50;32.80;33.90
28530;DHT22;15737;49.760;6.632;2022-07-06T08:14:16;32.50;34.50
28530;DHT22;15737;49.760;6.632;2022-07-06T08:16:42;30.10;37.80
28530;DHT22;15737;49.760;6.632;2022-07-06T08:19:08;28.40;39.40
28530;DHT22;15737;49.760;6.632;2022-07-06T08:21:35;27.60;40.70
28530;DHT22;15737;49.760;6.632;2022-07-06T08:24:01;28.00;40.20
28530;DHT22;15737;49.760;6.632;2022-07-06T08:26:27;28.20;40.00
28530;DHT22;15737;49.760;6.632;2022-07-06T08:28:53;28.90;38.70
28530;DHT22;15737;49.760;6.632;2022-07-06T08:31:19;30.10;37.10
28530;DHT22;15737;49.760;6.632;2022-07-06T08:33:45;28.50;38.50
28530;DHT22;15737;49.760;6.632;2022-07-06T08:36:10;27.60;40.40
28530;DHT22;15737;49.760;6.632;2022-07-06T08:38:36;28.20;40.10
28530;DHT22;15737;49.760;6.632;2022-07-06T08:41:02;29.20;38.30
28530;DHT22;15737;49.760;6.632;2022-07-06T08:43:32;28.30;39.40
28530;DHT22;15737;49.760;6.632;2022-07-06T08:45:58;28.00;40.10
28530;DHT22;15737;49.760;6.632;2022-07-06T08:48:25;28.00;40.00
28530;DHT22;15737;49.760;6.632;2022-07-06T08:50:52;27.90;40.30
28530;DHT22;15737;49.760;6.632;2022-07-06T08:53:18;28.90;38.90
28530;DHT22;15737;49.760;6.632;2022-07-06T08:55:45;28.10;40.00
28530;DHT22;15737;49.760;6.632;2022-07-06T08:58:11;26.40;41.90
28530;DHT22;15737;49.760;6.632;2022-07-06T09:00:37;25.10;44.00
28530;DHT22;15737;49.760;6.632;2022-07-06T09:03:04;24.20;45.60
28530;DHT22;15737;49.760;6.632;2022-07-06T09:05:31;26.00;44.00
28530;DHT22;15737;49.760;6.632;2022-07-06T09:07:58;27.70;41.20
28530;DHT22;15737;49.760;6.632;2022-07-06T09:10:24;28.20;40.60
28530;DHT22;15737;49.760;6.632;2022-07-06T09:12:50;28.30;40.40
28530;DHT22;15737;49.760;6.632;2022-07-06T09:15:15;28.90;39.50
28530;DHT22;15737;49.760;6.632;2022-07-06T09:17:42;31.40;36.90
28530;DHT22;15737;49.760;6.632;2022-07-06T09:20:09;33.10;35.20
28530;DHT22;15737;49.760;6.632;2022-07-06T09:22:39;33.50;34.80
28530;DHT22;15737;49.760;6.632;2022-07-06T09:25:11;32.20;35.50
28530;DHT22;15737;49.760;6.632;2022-07-06T09:27:47;29.60;38.20
28530;DHT22;15737;49.760;6.632;2022-07-06T09:30:15;28.00;40.60
28530;DHT22;15737;49.760;6.632;2022-07-06T09:32:46;27.10;41.80
28530;DHT22;15737;49.760;6.632;2022-07-06T09:35:26;26.20;42.50
28530;DHT22;15737;49.760;6.632;2022-07-06T09:40:43;24.30;45.60
28530;DHT22;15737;49.760;6.632;2022-07-06T09:43:20;24.30;45.10
28530;DHT22;15737;49.760;6.632;2022-07-06T09:45:46;23.70;45.80
28530;DHT22;15737;49.760;6.632;2022-07-06T09:48:24;23.20;46.60
28530;DHT22;15737;49.760;6.632;2022-07-06T09:50:52;22.60;47.10
28530;DHT22;15737;49.760;6.632;2022-07-06T09:53:24;22.60;47.40
28530;DHT22;15737;49.760;6.632;2022-07-06T09:55:51;23.60;46.70
28530;DHT22;15737;49.760;6.632;2022-07-06T09:58:18;27.70;41.40
28530;DHT22;15737;49.760;6.632;2022-07-06T10:00:45;29.70;38.60
28530;DHT22;15737;49.760;6.632;2022-07-06T10:03:12;30.10;38.00
28530;DHT22;15737;49.760;6.632;2022-07-06T10:05:39;29.60;38.50
28530;DHT22;15737;49.760;6.632;2022-07-06T10:08:06;28.90;38.60
28530;DHT22;15737;49.760;6.632;2022-07-06T10:10:35;27.70;39.70
28530;DHT22;15737;49.760;6.632;2022-07-06T10:13:02;26.50;41.50
28530;DHT22;15737;49.760;6.632;2022-07-06T10:15:29;26.00;42.20
28530;DHT22;15737;49.760;6.632;2022-07-06T10:17:59;25.40;41.70
28530;DHT22;15737;49.760;6.632;2022-07-06T10:20:28;24.10;43.60
28530;DHT22;15737;49.760;6.632;2022-07-06T10:22:54;24.70;42.80
28530;DHT22;15737;49.760;6.632;2022-07-06T10:25:23;25.20;42.40
28530;DHT22;15737;49.760;6.632;2022-07-06T10:27:49;26.80;40.90
28530;DHT22;15737;49.760;6.632;2022-07-06T10:30:16;29.40;38.10
28530;DHT22;15737;49.760;6.632;2022-07-06T10:32:44;30.40;36.60
28530;DHT22;15737;49.760;6.632;2022-07-06T10:35:11;31.80;35.30
28530;DHT22;15737;49.760;6.632;2022-07-06T10:37:37;30.90;36.00
28530;DHT22;15737;49.760;6.632;2022-07-06T10:42:47;27.50;38.90
28530;DHT22;15737;49.760;6.632;2022-07-06T10:50:54;30.80;35.50
28530;DHT22;15737;49.760;6.632;2022-07-06T10:53:28;32.40;34.00
28530;DHT22;15737;49.760;6.632;2022-07-06T10:55:55;32.60;34.20
28530;DHT22;15737;49.760;6.632;2022-07-06T11:01:10;30.60;35.60
28530;DHT22;15737;49.760;6.632;2022-07-06T11:03:44;30.80;35.40
28530;DHT22;15737;49.760;6.632;2022-07-06T11:14:03;31.40;34.80
28530;DHT22;15737;49.760;6.632;2022-07-06T11:16:36;31.10;35.10
28530;DHT22;15737;49.760;6.632;2022-07-06T11:19:11;30.30;35.30
28530;DHT22;15737;49.760;6.632;2022-07-06T11:21:44;30.00;35.80
28530;DHT22;15737;49.760;6.632;2022-07-06T11:24:12;28.90;36.30
28530;DHT22;15737;49.760;6.632;2022-07-06T11:26:38;28.60;37.00
28530;DHT22;15737;49.760;6.632;2022-07-06T11:29:05;29.50;36.60
28530;DHT22;15737;49.760;6.632;2022-07-06T11:31:37;30.40;35.10
28530;DHT22;15737;49.760;6.632;2022-07-06T11:34:04;29.70;35.60
28530;DHT22;15737;49.760;6.632;2022-07-06T11:36:31;30.20;35.60
28530;DHT22;15737;49.760;6.632;2022-07-06T11:38:57;31.10;35.10
28530;DHT22;15737;49.760;6.632;2022-07-06T11:41:23;32.50;34.00
28530;DHT22;15737;49.760;6.632;2022-07-06T11:46:28;34.20;32.50
28530;DHT22;15737;49.760;6.632;2022-07-06T11:48:56;34.60;31.70
28530;DHT22;15737;49.760;6.632;2022-07-06T11:51:25;33.70;32.00
28530;DHT22;15737;49.760;6.632;2022-07-06T11:53:54;32.70;33.10
28530;DHT22;15737;49.760;6.632;2022-07-06T11:56:20;32.80;32.70
28530;DHT22;15737;49.760;6.632;2022-07-06T11:58:51;32.10;33.40
28530;DHT22;15737;49.760;6.632;2022-07-06T12:01:17;31.60;33.60
28530;DHT22;15737;49.760;6.632;2022-07-06T12:03:44;30.10;34.60
28530;DHT22;15737;49.760;6.632;2022-07-06T12:06:23;29.40;35.90
28530;DHT22;15737;49.760;6.632;2022-07-06T12:08:57;29.80;35.20
28530;DHT22;15737;49.760;6.632;2022-07-06T12:11:26;30.30;34.90
28530;DHT22;15737;49.760;6.632;2022-07-06T12:13:54;30.20;34.60
28530;DHT22;15737;49.760;6.632;2022-07-06T12:16:20;30.30;33.90
28530;DHT22;15737;49.760;6.632;2022-07-06T12:18:50;30.00;34.50
28530;DHT22;15737;49.760;6.632;2022-07-06T12:21:25;29.20;35.00
28530;DHT22;15737;49.760;6.632;2022-07-06T12:24:07;29.30;35.80
28530;DHT22;15737;49.760;6.632;2022-07-06T12:26:49;29.20;35.80
28530;DHT22;15737;49.760;6.632;2022-07-06T12:29:32;29.30;35.90
28530;DHT22;15737;49.760;6.632;2022-07-06T12:32:24;29.10;36.20
28530;DHT22;15737;49.760;6.632;2022-07-06T12:35:10;29.20;36.30
28530;DHT22;15737;49.760;6.632;2022-07-06T12:38:03;28.60;36.40
28530;DHT22;15737;49.760;6.632;2022-07-06T12:40:46;27.10;38.00
28530;DHT22;15737;49.760;6.632;2022-07-06T12:43:40;26.60;39.00
28530;DHT22;15737;49.760;6.632;2022-07-06T12:54:20;28.60;37.60
28530;DHT22;15737;49.760;6.632;2022-07-06T12:57:18;28.70;37.10
28530;DHT22;15737;49.760;6.632;2022-07-06T13:00:05;28.50;37.10
28530;DHT22;15737;49.760;6.632;2022-07-06T13:02:46;27.30;38.40
28530;DHT22;15737;49.760;6.632;2022-07-06T13:05:30;26.50;39.70
28530;DHT22;15737;49.760;6.632;2022-07-06T13:08:12;27.10;39.20
28530;DHT22;15737;49.760;6.632;2022-07-06T13:10:52;27.20;39.10
28530;DHT22;15737;49.760;6.632;2022-07-06T13:13:29;27.30;38.90
28530;DHT22;15737;49.760;6.632;2022-07-06T13:16:12;27.30;38.70
28530;DHT22;15737;49.760;6.632;2022-07-06T13:18:51;27.30;38.80
28530;DHT22;15737;49.760;6.632;2022-07-06T13:21:28;27.60;38.80
28530;DHT22;15737;49.760;6.632;2022-07-06T13:24:09;27.50;38.50
28530;DHT22;15737;49.760;6.632;2022-07-06T13:26:48;26.90;39.20
28530;DHT22;15737;49.760;6.632;2022-07-06T13:29:20;26.90;39.80
28530;DHT22;15737;49.760;6.632;2022-07-06T13:31:51;27.40;39.00
28530;DHT22;15737;49.760;6.632;2022-07-06T13:34:37;27.20;39.50
28530;DHT22;15737;49.760;6.632;2022-07-06T13:37:16;27.10;39.60
28530;DHT22;15737;49.760;6.632;2022-07-06T13:39:51;27.30;39.40
28530;DHT22;15737;49.760;6.632;2022-07-06T13:42:22;27.60;39.10
28530;DHT22;15737;49.760;6.632;2022-07-06T13:44:58;27.40;39.40
28530;DHT22;15737;49.760;6.632;2022-07-06T13:47:41;27.20;39.70
28530;DHT22;15737;49.760;6.632;2022-07-06T13:50:15;27.20;39.60
28530;DHT22;15737;49.760;6.632;2022-07-06T13:52:40;27.00;40.00
28530;DHT22;15737;49.760;6.632;2022-07-06T13:55:06;27.10;39.80
28530;DHT22;15737;49.760;6.632;2022-07-06T13:57:32;26.80;39.70
28530;DHT22;15737;49.760;6.632;2022-07-06T13:59:57;25.80;40.80
28530;DHT22;15737;49.760;6.632;2022-07-06T14:02:23;25.40;41.80
28530;DHT22;15737;49.760;6.632;2022-07-06T14:04:48;25.00;42.20
28530;DHT22;15737;49.760;6.632;2022-07-06T14:07:21;24.70;42.50
28530;DHT22;15737;49.760;6.632;2022-07-06T14:09:49;24.50;43.10
28530;DHT22;15737;49.760;6.632;2022-07-06T14:12:17;24.50;43.10
28530;DHT22;15737;49.760;6.632;2022-07-06T14:14:42;24.40;43.40
28530;DHT22;15737;49.760;6.632;2022-07-06T14:17:08;24.10;43.40
28530;DHT22;15737;49.760;6.632;2022-07-06T14:19:34;23.90;44.00
28530;DHT22;15737;49.760;6.632;2022-07-06T14:21:59;24.50;43.70
28530;DHT22;15737;49.760;6.632;2022-07-06T14:24:25;24.80;43.10
28530;DHT22;15737;49.760;6.632;2022-07-06T14:26:50;25.00;43.00
28530;DHT22;15737;49.760;6.632;2022-07-06T14:29:16;25.20;42.70
28530;DHT22;15737;49.760;6.632;2022-07-06T14:31:42;25.40;42.80
28530;DHT22;15737;49.760;6.632;2022-07-06T14:34:08;25.70;42.50
28530;DHT22;15737;49.760;6.632;2022-07-06T14:36:33;25.90;42.40
28530;DHT22;15737;49.760;6.632;2022-07-06T14:39:03;25.80;42.20
28530;DHT22;15737;49.760;6.632;2022-07-06T14:41:28;26.00;42.10
28530;DHT22;15737;49.760;6.632;2022-07-06T14:43:54;26.00;42.00
28530;DHT22;15737;49.760;6.632;2022-07-06T14:46:19;25.40;42.30
28530;DHT22;15737;49.760;6.632;2022-07-06T14:48:45;25.20;43.10
28530;DHT22;15737;49.760;6.632;2022-07-06T14:51:10;25.40;42.80
28530;DHT22;15737;49.760;6.632;2022-07-06T14:53:36;25.10;43.00
28530;DHT22;15737;49.760;6.632;2022-07-06T14:56:02;24.90;43.70
28530;DHT22;15737;49.760;6.632;2022-07-06T14:58:27;25.10;43.30
28530;DHT22;15737;49.760;6.632;2022-07-06T15:00:53;25.20;43.50
28530;DHT22;15737;49.760;6.632;2022-07-06T15:03:19;26.00;43.00
28530;DHT22;15737;49.760;6.632;2022-07-06T15:05:44;26.10;42.30
28530;DHT22;15737;49.760;6.632;2022-07-06T15:08:12;26.00;42.70
28530;DHT22;15737;49.760;6.632;2022-07-06T15:10:40;26.20;42.50
28530;DHT22;15737;49.760;6.632;2022-07-06T15:13:05;26.50;42.30
28530;DHT22;15737;49.760;6.632;2022-07-06T15:15:31;26.60;42.10
28530;DHT22;15737;49.760;6.632;2022-07-06T15:17:57;26.50;41.80
28530;DHT22;15737;49.760;6.632;2022-07-06T15:20:23;26.60;42.00
28530;DHT22;15737;49.760;6.632;2022-07-06T15:22:48;26.20;41.60
28530;DHT22;15737;49.760;6.632;2022-07-06T15:25:14;25.00;42.90
28530;DHT22;15737;49.760;6.632;2022-07-06T15:27:40;24.80;43.60
28530;DHT22;15737;49.760;6.632;2022-07-06T15:30:06;25.20;43.50
28530;DHT22;15737;49.760;6.632;2022-07-06T15:32:32;25.70;42.80
28530;DHT22;15737;49.760;6.632;2022-07-06T15:34:58;26.40;42.20
28530;DHT22;15737;49.760;6.632;2022-07-06T15:37:23;26.70;41.50
28530;DHT22;15737;49.760;6.632;2022-07-06T15:39:49;27.00;41.10
28530;DHT22;15737;49.760;6.632;2022-07-06T15:42:14;26.30;41.20
28530;DHT22;15737;49.760;6.632;2022-07-06T15:44:40;25.70;42.20
28530;DHT22;15737;49.760;6.632;2022-07-06T15:47:06;25.30;42.60
28530;DHT22;15737;49.760;6.632;2022-07-06T15:49:32;25.20;43.10
28530;DHT22;15737;49.760;6.632;2022-07-06T15:51:58;25.20;43.10
28530;DHT22;15737;49.760;6.632;2022-07-06T15:54:24;24.90;43.20
28530;DHT22;15737;49.760;6.632;2022-07-06T15:56:49;24.60;43.60
28530;DHT22;15737;49.760;6.632;2022-07-06T15:59:15;24.20;44.40
28530;DHT22;15737;49.760;6.632;2022-07-06T16:01:40;24.50;44.40
28530;DHT22;15737;49.760;6.632;2022-07-06T16:04:06;24.50;44.00
28530;DHT22;15737;49.760;6.632;2022-07-06T16:06:33;24.50;44.10
28530;DHT22;15737;49.760;6.632;2022-07-06T16:08:58;24.60;44.00
28530;DHT22;15737;49.760;6.632;2022-07-06T16:11:24;25.20;43.50
28530;DHT22;15737;49.760;6.632;2022-07-06T16:13:49;25.50;42.90
28530;DHT22;15737;49.760;6.632;2022-07-06T16:16:15;25.30;43.10
28530;DHT22;15737;49.760;6.632;2022-07-06T16:18:41;25.20;43.50
28530;DHT22;15737;49.760;6.632;2022-07-06T16:21:07;25.00;44.00
28530;DHT22;15737;49.760;6.632;2022-07-06T16:23:33;25.00;44.30